sensor_id;sensor_type;location;lat;lon;timestamp;P1;durP1;ratioP1;P2;durP2;ratioP2
50161;SDS011;36061;48.116;11.612;2022-08-19T00:00:19;5.13;;;3.63;;
50161;SDS011;36061;48.116;11.612;2022-08-19T00:02:45;6.07;;;3.73;;
50161;SDS011;36061;48.116;11.612;2022-08-19T00:05:12;5.00;;;3.77;;
50161;SDS011;36061;48.116;11.612;2022-08-19T00:07:38;4.73;;;3.63;;
50161;SDS011;36061;48.116;11.612;2022-08-19T00:10:05;3.37;;;3.07;;
50161;SDS011;36061;48.116;11.612;2022-08-19T00:12:37;4.93;;;4.43;;
50161;SDS011;36061;48.116;11.612;2022-08-19T00:15:05;4.60;;;4.10;;
50161;SDS011;36061;48.116;11.612;2022-08-19T00:17:35;3.57;;;3.10;;
50161;SDS011;36061;48.116;11.612;2022-08-19T00:20:01;3.77;;;3.30;;
50161;SDS011;36061;48.116;11.612;2022-08-19T00:22:27;3.97;;;3.47;;
50161;SDS011;36061;48.116;11.612;2022-08-19T00:24:53;4.93;;;3.60;;
50161;SDS011;36061;48.116;11.612;2022-08-19T00:27:19;3.73;;;3.37;;
50161;SDS011;36061;48.116;11.612;2022-08-19T00:29:45;4.47;;;3.40;;
50161;SDS011;36061;48.116;11.612;2022-08-19T00:32:11;4.00;;;3.60;;
50161;SDS011;36061;48.116;11.612;2022-08-19T00:34:37;5.77;;;3.53;;
50161;SDS011;36061;48.116;11.612;2022-08-19T00:37:02;4.03;;;3.20;;
50161;SDS011;36061;48.116;11.612;2022-08-19T00:39:28;5.70;;;4.40;;
50161;SDS011;36061;48.116;11.612;2022-08-19T00:41:55;5.60;;;4.30;;
50161;SDS011;36061;48.116;11.612;2022-08-19T00:44:23;6.00;;;3.87;;
50161;SDS011;36061;48.116;11.612;2022-08-19T00:46:52;4.67;;;4.17;;
50161;SDS011;36061;48.116;11.612;2022-08-19T00:49:23;4.53;;;3.83;;
50161;SDS011;36061;48.116;11.612;2022-08-19T00:52:13;4.43;;;3.90;;
50161;SDS011;36061;48.116;11.612;2022-08-19T00:54:43;4.83;;;4.03;;
50161;SDS011;36061;48.116;11.612;2022-08-19T00:57:15;5.47;;;4.43;;
50161;SDS011;36061;48.116;11.612;2022-08-19T00:59:44;7.10;;;4.00;;
50161;SDS011;36061;48.116;11.612;2022-08-19T01:02:14;6.07;;;4.03;;
50161;SDS011;36061;48.116;11.612;2022-08-19T01:04:41;4.03;;;3.40;;
50161;SDS011;36061;48.116;11.612;2022-08-19T01:07:07;5.43;;;4.40;;
50161;SDS011;36061;48.116;11.612;2022-08-19T01:09:33;6.23;;;4.40;;
50161;SDS011;36061;48.116;11.612;2022-08-19T01:11:59;6.43;;;4.80;;
50161;SDS011;36061;48.116;11.612;2022-08-19T01:14:25;6.47;;;5.00;;
50161;SDS011;36061;48.116;11.612;2022-08-19T01:16:51;5.37;;;4.87;;
50161;SDS011;36061;48.116;11.612;2022-08-19T01:19:26;6.63;;;4.60;;
50161;SDS011;36061;48.116;11.612;2022-08-19T01:21:59;6.50;;;4.63;;
50161;SDS011;36061;48.116;11.612;2022-08-19T01:24:31;6.90;;;4.93;;
50161;SDS011;36061;48.116;11.612;2022-08-19T01:26:57;5.90;;;4.87;;
50161;SDS011;36061;48.116;11.612;2022-08-19T01:29:23;7.30;;;5.20;;
50161;SDS011;36061;48.116;11.612;2022-08-19T01:31:49;5.93;;;5.30;;
50161;SDS011;36061;48.116;11.612;2022-08-19T01:34:17;8.63;;;4.80;;
50161;SDS011;36061;48.116;11.612;2022-08-19T01:36:44;6.70;;;5.47;;
50161;SDS011;36061;48.116;11.612;2022-08-19T01:39:20;6.53;;;5.57;;
50161;SDS011;36061;48.116;11.612;2022-08-19T01:41:48;5.97;;;4.93;;
50161;SDS011;36061;48.116;11.612;2022-08-19T01:44:14;6.37;;;5.30;;
50161;SDS011;36061;48.116;11.612;2022-08-19T01:46:42;5.23;;;4.57;;
50161;SDS011;36061;48.116;11.612;2022-08-19T01:49:08;6.73;;;4.77;;
50161;SDS011;36061;48.116;11.612;2022-08-19T01:51:35;8.13;;;5.20;;
50161;SDS011;36061;48.116;11.612;2022-08-19T01:54:02;5.70;;;4.70;;
50161;SDS011;36061;48.116;11.612;2022-08-19T01:56:28;6.30;;;5.20;;
50161;SDS011;36061;48.116;11.612;2022-08-19T01:58:58;5.87;;;4.43;;
50161;SDS011;36061;48.116;11.612;2022-08-19T02:01:27;5.33;;;4.13;;
50161;SDS011;36061;48.116;11.612;2022-08-19T02:03:57;5.50;;;4.60;;
50161;SDS011;36061;48.116;11.612;2022-08-19T02:06:25;5.67;;;4.27;;
50161;SDS011;36061;48.116;11.612;2022-08-19T02:08:51;5.13;;;4.63;;
50161;SDS011;36061;48.116;11.612;2022-08-19T02:11:35;5.80;;;4.53;;
50161;SDS011;36061;48.116;11.612;2022-08-19T02:14:04;4.70;;;4.20;;
50161;SDS011;36061;48.116;11.612;2022-08-19T02:16:32;5.30;;;4.50;;
50161;SDS011;36061;48.116;11.612;2022-08-19T02:18:58;5.87;;;4.80;;
50161;SDS011;36061;48.116;11.612;2022-08-19T02:21:25;5.13;;;4.27;;
50161;SDS011;36061;48.116;11.612;2022-08-19T02:23:52;5.40;;;4.40;;
50161;SDS011;36061;48.116;11.612;2022-08-19T02:26:18;5.50;;;4.90;;
50161;SDS011;36061;48.116;11.612;2022-08-19T02:28:45;5.67;;;4.20;;
50161;SDS011;36061;48.116;11.612;2022-08-19T02:31:12;5.23;;;4.33;;
50161;SDS011;36061;48.116;11.612;2022-08-19T02:33:41;4.10;;;3.70;;
50161;SDS011;36061;48.116;11.612;2022-08-19T02:36:07;4.40;;;3.97;;
50161;SDS011;36061;48.116;11.612;2022-08-19T02:38:34;4.57;;;4.17;;
50161;SDS011;36061;48.116;11.612;2022-08-19T02:41:02;5.13;;;3.97;;
50161;SDS011;36061;48.116;11.612;2022-08-19T02:43:30;4.57;;;4.07;;
50161;SDS011;36061;48.116;11.612;2022-08-19T02:45:57;7.37;;;4.87;;
50161;SDS011;36061;48.116;11.612;2022-08-19T02:48:24;5.37;;;4.20;;
50161;SDS011;36061;48.116;11.612;2022-08-19T02:50:51;4.97;;;3.80;;
50161;SDS011;36061;48.116;11.612;2022-08-19T02:53:20;5.97;;;3.83;;
50161;SDS011;36061;48.116;11.612;2022-08-19T02:55:51;5.67;;;4.30;;
50161;SDS011;36061;48.116;11.612;2022-08-19T02:58:17;5.03;;;3.67;;
50161;SDS011;36061;48.116;11.612;2022-08-19T03:00:48;4.53;;;4.10;;
50161;SDS011;36061;48.116;11.612;2022-08-19T03:03:17;6.17;;;3.83;;
50161;SDS011;36061;48.116;11.612;2022-08-19T03:05:44;3.60;;;3.10;;
50161;SDS011;36061;48.116;11.612;2022-08-19T03:08:11;4.93;;;4.13;;
50161;SDS011;36061;48.116;11.612;2022-08-19T03:10:41;4.83;;;4.10;;
50161;SDS011;36061;48.116;11.612;2022-08-19T03:13:10;5.00;;;4.27;;
50161;SDS011;36061;48.116;11.612;2022-08-19T03:15:41;4.53;;;3.60;;
50161;SDS011;36061;48.116;11.612;2022-08-19T03:18:08;3.70;;;3.40;;
50161;SDS011;36061;48.116;11.612;2022-08-19T03:20:39;4.80;;;4.10;;
50161;SDS011;36061;48.116;11.612;2022-08-19T03:23:09;5.37;;;3.83;;
50161;SDS011;36061;48.116;11.612;2022-08-19T03:25:42;5.10;;;3.70;;
50161;SDS011;36061;48.116;11.612;2022-08-19T03:28:13;6.33;;;4.17;;
50161;SDS011;36061;48.116;11.612;2022-08-19T03:30:40;4.50;;;3.83;;
50161;SDS011;36061;48.116;11.612;2022-08-19T03:33:08;4.57;;;3.80;;
50161;SDS011;36061;48.116;11.612;2022-08-19T03:35:36;5.20;;;3.93;;
50161;SDS011;36061;48.116;11.612;2022-08-19T03:38:03;6.10;;;3.80;;
50161;SDS011;36061;48.116;11.612;2022-08-19T03:40:31;4.97;;;3.47;;
50161;SDS011;36061;48.116;11.612;2022-08-19T03:42:57;4.30;;;3.90;;
50161;SDS011;36061;48.116;11.612;2022-08-19T03:45:23;4.50;;;4.00;;
50161;SDS011;36061;48.116;11.612;2022-08-19T03:47:49;5.70;;;4.27;;
50161;SDS011;36061;48.116;11.612;2022-08-19T03:50:15;5.57;;;4.10;;
50161;SDS011;36061;48.116;11.612;2022-08-19T03:52:42;3.33;;;3.03;;
50161;SDS011;36061;48.116;11.612;2022-08-19T03:55:08;4.40;;;3.60;;
50161;SDS011;36061;48.116;11.612;2022-08-19T03:57:33;5.03;;;4.30;;
50161;SDS011;36061;48.116;11.612;2022-08-19T03:59:59;5.07;;;3.43;;
50161;SDS011;36061;48.116;11.612;2022-08-19T04:02:26;4.10;;;3.67;;
50161;SDS011;36061;48.116;11.612;2022-08-19T04:04:52;3.77;;;3.33;;
50161;SDS011;36061;48.116;11.612;2022-08-19T04:07:19;4.57;;;3.40;;
50161;SDS011;36061;48.116;11.612;2022-08-19T04:09:47;4.30;;;3.60;;
50161;SDS011;36061;48.116;11.612;2022-08-19T04:12:14;3.83;;;3.27;;
50161;SDS011;36061;48.116;11.612;2022-08-19T04:14:40;5.10;;;3.80;;
50161;SDS011;36061;48.116;11.612;2022-08-19T04:17:06;5.77;;;4.50;;
50161;SDS011;36061;48.116;11.612;2022-08-19T04:19:33;4.67;;;4.17;;
50161;SDS011;36061;48.116;11.612;2022-08-19T04:22:00;5.73;;;3.60;;
50161;SDS011;36061;48.116;11.612;2022-08-19T04:24:26;4.47;;;3.87;;
50161;SDS011;36061;48.116;11.612;2022-08-19T04:26:52;7.80;;;4.20;;
50161;SDS011;36061;48.116;11.612;2022-08-19T04:29:19;5.10;;;4.10;;
50161;SDS011;36061;48.116;11.612;2022-08-19T04:31:49;5.93;;;4.00;;
50161;SDS011;36061;48.116;11.612;2022-08-19T04:34:19;7.80;;;4.47;;
50161;SDS011;36061;48.116;11.612;2022-08-19T04:36:47;6.67;;;4.63;;
50161;SDS011;36061;48.116;11.612;2022-08-19T04:39:16;6.27;;;3.60;;
50161;SDS011;36061;48.116;11.612;2022-08-19T04:41:45;5.07;;;4.00;;
50161;SDS011;36061;48.116;11.612;2022-08-19T04:44:33;6.03;;;4.13;;
50161;SDS011;36061;48.116;11.612;2022-08-19T04:47:00;5.87;;;4.10;;
50161;SDS011;36061;48.116;11.612;2022-08-19T04:49:30;9.70;;;4.13;;
50161;SDS011;36061;48.116;11.612;2022-08-19T04:51:56;4.80;;;3.90;;
50161;SDS011;36061;48.116;11.612;2022-08-19T04:54:23;8.70;;;3.43;;
50161;SDS011;36061;48.116;11.612;2022-08-19T04:56:50;6.43;;;4.13;;
50161;SDS011;36061;48.116;11.612;2022-08-19T04:59:18;5.33;;;3.97;;
50161;SDS011;36061;48.116;11.612;2022-08-19T05:01:45;5.87;;;4.00;;
50161;SDS011;36061;48.116;11.612;2022-08-19T05:04:14;6.37;;;4.83;;
50161;SDS011;36061;48.116;11.612;2022-08-19T05:06:42;4.30;;;3.77;;
50161;SDS011;36061;48.116;11.612;2022-08-19T05:09:08;7.10;;;5.67;;
50161;SDS011;36061;48.116;11.612;2022-08-19T05:11:35;4.97;;;3.93;;
50161;SDS011;36061;48.116;11.612;2022-08-19T05:14:05;5.77;;;3.67;;
50161;SDS011;36061;48.116;11.612;2022-08-19T05:16:32;5.23;;;3.43;;
50161;SDS011;36061;48.116;11.612;2022-08-19T05:18:57;4.63;;;4.00;;
50161;SDS011;36061;48.116;11.612;2022-08-19T05:21:42;5.00;;;4.20;;
50161;SDS011;36061;48.116;11.612;2022-08-19T05:24:27;4.60;;;3.63;;
50161;SDS011;36061;48.116;11.612;2022-08-19T05:26:53;5.50;;;3.50;;
50161;SDS011;36061;48.116;11.612;2022-08-19T05:29:22;7.43;;;3.70;;
50161;SDS011;36061;48.116;11.612;2022-08-19T05:31:50;5.50;;;4.40;;
50161;SDS011;36061;48.116;11.612;2022-08-19T05:34:18;6.67;;;4.53;;
50161;SDS011;36061;48.116;11.612;2022-08-19T05:36:47;5.07;;;3.97;;
50161;SDS011;36061;48.116;11.612;2022-08-19T05:39:15;5.33;;;4.27;;
50161;SDS011;36061;48.116;11.612;2022-08-19T05:41:45;6.33;;;3.87;;
50161;SDS011;36061;48.116;11.612;2022-08-19T05:44:13;7.03;;;4.83;;
50161;SDS011;36061;48.116;11.612;2022-08-19T05:46:40;5.80;;;4.10;;
50161;SDS011;36061;48.116;11.612;2022-08-19T05:49:09;6.40;;;3.97;;
50161;SDS011;36061;48.116;11.612;2022-08-19T05:51:35;5.00;;;3.93;;
50161;SDS011;36061;48.116;11.612;2022-08-19T05:54:05;7.33;;;4.00;;
50161;SDS011;36061;48.116;11.612;2022-08-19T05:56:32;7.17;;;4.30;;
50161;SDS011;36061;48.116;11.612;2022-08-19T05:59:01;6.30;;;4.83;;
50161;SDS011;36061;48.116;11.612;2022-08-19T06:01:27;7.17;;;5.03;;
50161;SDS011;36061;48.116;11.612;2022-08-19T06:03:53;3.80;;;3.40;;
50161;SDS011;36061;48.116;11.612;2022-08-19T06:06:19;4.27;;;3.70;;
50161;SDS011;36061;48.116;11.612;2022-08-19T06:08:45;5.37;;;4.83;;
50161;SDS011;36061;48.116;11.612;2022-08-19T06:11:17;6.23;;;4.97;;
50161;SDS011;36061;48.116;11.612;2022-08-19T06:13:43;7.00;;;4.73;;
50161;SDS011;36061;48.116;11.612;2022-08-19T06:16:15;8.57;;;6.67;;
50161;SDS011;36061;48.116;11.612;2022-08-19T06:18:49;6.43;;;5.20;;
50161;SDS011;36061;48.116;11.612;2022-08-19T06:21:17;7.90;;;5.13;;
50161;SDS011;36061;48.116;11.612;2022-08-19T06:23:44;6.20;;;4.20;;
50161;SDS011;36061;48.116;11.612;2022-08-19T06:26:12;7.30;;;5.07;;
50161;SDS011;36061;48.116;11.612;2022-08-19T06:28:39;8.70;;;5.37;;
50161;SDS011;36061;48.116;11.612;2022-08-19T06:31:17;7.00;;;4.40;;
50161;SDS011;36061;48.116;11.612;2022-08-19T06:33:46;7.07;;;5.07;;
50161;SDS011;36061;48.116;11.612;2022-08-19T06:38:57;11.07;;;6.83;;
50161;SDS011;36061;48.116;11.612;2022-08-19T06:41:26;10.57;;;6.37;;
50161;SDS011;36061;48.116;11.612;2022-08-19T06:43:53;9.37;;;7.13;;
50161;SDS011;36061;48.116;11.612;2022-08-19T06:46:20;11.73;;;7.60;;
50161;SDS011;36061;48.116;11.612;2022-08-19T06:48:46;9.17;;;6.53;;
50161;SDS011;36061;48.116;11.612;2022-08-19T06:51:14;10.50;;;6.63;;
50161;SDS011;36061;48.116;11.612;2022-08-19T06:53:43;7.70;;;5.83;;
50161;SDS011;36061;48.116;11.612;2022-08-19T06:56:16;10.13;;;6.80;;
50161;SDS011;36061;48.116;11.612;2022-08-19T06:58:43;11.70;;;7.03;;
50161;SDS011;36061;48.116;11.612;2022-08-19T07:01:11;12.90;;;7.27;;
50161;SDS011;36061;48.116;11.612;2022-08-19T07:03:37;8.97;;;7.17;;
50161;SDS011;36061;48.116;11.612;2022-08-19T07:06:13;10.27;;;7.90;;
50161;SDS011;36061;48.116;11.612;2022-08-19T07:08:43;10.43;;;7.13;;
50161;SDS011;36061;48.116;11.612;2022-08-19T07:11:12;9.97;;;7.20;;
50161;SDS011;36061;48.116;11.612;2022-08-19T07:13:39;14.10;;;8.40;;
50161;SDS011;36061;48.116;11.612;2022-08-19T07:16:06;10.20;;;7.57;;
50161;SDS011;36061;48.116;11.612;2022-08-19T07:18:32;10.87;;;8.10;;
50161;SDS011;36061;48.116;11.612;2022-08-19T07:21:06;12.27;;;9.60;;
50161;SDS011;36061;48.116;11.612;2022-08-19T07:23:34;20.27;;;9.43;;
50161;SDS011;36061;48.116;11.612;2022-08-19T07:26:12;11.63;;;8.60;;
50161;SDS011;36061;48.116;11.612;2022-08-19T07:28:44;15.47;;;9.47;;
50161;SDS011;36061;48.116;11.612;2022-08-19T07:31:12;14.17;;;10.80;;
50161;SDS011;36061;48.116;11.612;2022-08-19T07:33:43;15.13;;;10.27;;
50161;SDS011;36061;48.116;11.612;2022-08-19T07:36:10;13.13;;;8.93;;
50161;SDS011;36061;48.116;11.612;2022-08-19T07:38:38;13.17;;;9.23;;
50161;SDS011;36061;48.116;11.612;2022-08-19T07:41:07;11.63;;;8.10;;
50161;SDS011;36061;48.116;11.612;2022-08-19T07:43:35;12.63;;;9.47;;
50161;SDS011;36061;48.116;11.612;2022-08-19T07:46:02;13.37;;;10.40;;
50161;SDS011;36061;48.116;11.612;2022-08-19T07:48:28;14.07;;;9.60;;
50161;SDS011;36061;48.116;11.612;2022-08-19T07:50:54;13.13;;;9.67;;
50161;SDS011;36061;48.116;11.612;2022-08-19T07:53:27;14.97;;;9.40;;
50161;SDS011;36061;48.116;11.612;2022-08-19T07:55:53;14.70;;;10.90;;
50161;SDS011;36061;48.116;11.612;2022-08-19T07:58:20;14.70;;;10.83;;
50161;SDS011;36061;48.116;11.612;2022-08-19T08:00:47;14.57;;;10.80;;
50161;SDS011;36061;48.116;11.612;2022-08-19T08:03:15;14.17;;;10.37;;
50161;SDS011;36061;48.116;11.612;2022-08-19T08:05:44;17.77;;;10.73;;
50161;SDS011;36061;48.116;11.612;2022-08-19T08:08:28;15.57;;;10.63;;
50161;SDS011;36061;48.116;11.612;2022-08-19T08:11:15;14.50;;;10.93;;
50161;SDS011;36061;48.116;11.612;2022-08-19T08:13:43;15.43;;;11.13;;
50161;SDS011;36061;48.116;11.612;2022-08-19T08:16:09;15.07;;;10.47;;
50161;SDS011;36061;48.116;11.612;2022-08-19T08:18:35;13.37;;;9.40;;
50161;SDS011;36061;48.116;11.612;2022-08-19T08:21:06;13.33;;;9.43;;
50161;SDS011;36061;48.116;11.612;2022-08-19T08:23:32;14.53;;;9.83;;
50161;SDS011;36061;48.116;11.612;2022-08-19T08:25:58;12.77;;;10.53;;
50161;SDS011;36061;48.116;11.612;2022-08-19T08:28:25;14.37;;;10.50;;
50161;SDS011;36061;48.116;11.612;2022-08-19T08:30:55;15.37;;;10.43;;
50161;SDS011;36061;48.116;11.612;2022-08-19T08:33:23;17.57;;;12.03;;
50161;SDS011;36061;48.116;11.612;2022-08-19T08:35:49;13.67;;;9.83;;
50161;SDS011;36061;48.116;11.612;2022-08-19T08:38:15;14.00;;;10.00;;
50161;SDS011;36061;48.116;11.612;2022-08-19T08:40:46;16.30;;;10.57;;
50161;SDS011;36061;48.116;11.612;2022-08-19T08:48:44;16.43;;;10.23;;
50161;SDS011;36061;48.116;11.612;2022-08-19T08:51:34;16.73;;;10.53;;
50161;SDS011;36061;48.116;11.612;2022-08-19T08:54:04;13.80;;;9.53;;
50161;SDS011;36061;48.116;11.612;2022-08-19T08:56:32;13.33;;;10.03;;
50161;SDS011;36061;48.116;11.612;2022-08-19T08:59:03;14.93;;;10.27;;
50161;SDS011;36061;48.116;11.612;2022-08-19T09:01:33;13.63;;;9.73;;
50161;SDS011;36061;48.116;11.612;2022-08-19T09:04:02;15.27;;;9.87;;
50161;SDS011;36061;48.116;11.612;2022-08-19T09:17:22;15.53;;;10.40;;
50161;SDS011;36061;48.116;11.612;2022-08-19T09:19:54;17.80;;;10.87;;
50161;SDS011;36061;48.116;11.612;2022-08-19T09:22:29;17.87;;;10.33;;
50161;SDS011;36061;48.116;11.612;2022-08-19T09:24:55;19.10;;;11.63;;
50161;SDS011;36061;48.116;11.612;2022-08-19T09:27:22;17.20;;;11.23;;
50161;SDS011;36061;48.116;11.612;2022-08-19T09:29:49;17.17;;;10.47;;
50161;SDS011;36061;48.116;11.612;2022-08-19T09:32:15;14.70;;;10.90;;
50161;SDS011;36061;48.116;11.612;2022-08-19T09:34:43;17.10;;;11.50;;
50161;SDS011;36061;48.116;11.612;2022-08-19T09:37:09;14.13;;;10.30;;
50161;SDS011;36061;48.116;11.612;2022-08-19T09:39:35;15.70;;;10.23;;
50161;SDS011;36061;48.116;11.612;2022-08-19T09:42:02;13.47;;;10.07;;
50161;SDS011;36061;48.116;11.612;2022-08-19T09:44:28;13.70;;;9.40;;
50161;SDS011;36061;48.116;11.612;2022-08-19T09:46:54;13.90;;;10.20;;
50161;SDS011;36061;48.116;11.612;2022-08-19T09:49:21;16.90;;;11.10;;
50161;SDS011;36061;48.116;11.612;2022-08-19T09:51:51;17.33;;;10.87;;
50161;SDS011;36061;48.116;11.612;2022-08-19T09:54:18;14.67;;;9.93;;
50161;SDS011;36061;48.116;11.612;2022-08-19T09:56:44;15.37;;;9.57;;
50161;SDS011;36061;48.116;11.612;2022-08-19T09:59:10;16.17;;;10.13;;
50161;SDS011;36061;48.116;11.612;2022-08-19T10:01:37;13.67;;;9.80;;
50161;SDS011;36061;48.116;11.612;2022-08-19T10:04:03;11.80;;;9.17;;
50161;SDS011;36061;48.116;11.612;2022-08-19T10:06:36;13.10;;;8.83;;
50161;SDS011;36061;48.116;11.612;2022-08-19T10:09:04;12.07;;;9.10;;
50161;SDS011;36061;48.116;11.612;2022-08-19T10:11:33;12.37;;;8.47;;
50161;SDS011;36061;48.116;11.612;2022-08-19T10:14:00;12.27;;;9.37;;
50161;SDS011;36061;48.116;11.612;2022-08-19T10:16:27;14.03;;;9.40;;
50161;SDS011;36061;48.116;11.612;2022-08-19T10:18:53;14.17;;;9.33;;
50161;SDS011;36061;48.116;11.612;2022-08-19T10:21:21;11.53;;;9.13;;
50161;SDS011;36061;48.116;11.612;2022-08-19T10:23:49;10.80;;;7.77;;
50161;SDS011;36061;48.116;11.612;2022-08-19T10:26:20;10.67;;;8.73;;
50161;SDS011;36061;48.116;11.612;2022-08-19T10:28:48;11.13;;;8.57;;
50161;SDS011;36061;48.116;11.612;2022-08-19T10:31:16;12.90;;;8.47;;
50161;SDS011;36061;48.116;11.612;2022-08-19T10:33:45;13.97;;;8.90;;
50161;SDS011;36061;48.116;11.612;2022-08-19T10:36:14;13.07;;;9.73;;
50161;SDS011;36061;48.116;11.612;2022-08-19T10:38:46;11.43;;;8.80;;
50161;SDS011;36061;48.116;11.612;2022-08-19T10:41:16;14.33;;;9.17;;
50161;SDS011;36061;48.116;11.612;2022-08-19T10:43:43;12.00;;;8.13;;
50161;SDS011;36061;48.116;11.612;2022-08-19T10:46:11;11.53;;;7.90;;
50161;SDS011;36061;48.116;11.612;2022-08-19T10:48:40;12.93;;;8.80;;
50161;SDS011;36061;48.116;11.612;2022-08-19T10:51:07;12.57;;;8.50;;
50161;SDS011;36061;48.116;11.612;2022-08-19T10:53:52;15.17;;;9.00;;
50161;SDS011;36061;48.116;11.612;2022-08-19T10:56:18;13.50;;;8.10;;
50161;SDS011;36061;48.116;11.612;2022-08-19T10:59:03;12.60;;;8.70;;
50161;SDS011;36061;48.116;11.612;2022-08-19T11:01:30;10.93;;;8.40;;
50161;SDS011;36061;48.116;11.612;2022-08-19T11:03:58;13.13;;;7.33;;
50161;SDS011;36061;48.116;11.612;2022-08-19T11:06:25;13.13;;;8.37;;
50161;SDS011;36061;48.116;11.612;2022-08-19T11:08:51;12.63;;;8.63;;
50161;SDS011;36061;48.116;11.612;2022-08-19T11:11:18;11.67;;;8.73;;
50161;SDS011;36061;48.116;11.612;2022-08-19T11:13:44;9.57;;;8.07;;
50161;SDS011;36061;48.116;11.612;2022-08-19T11:18:42;7.93;;;6.20;;
50161;SDS011;36061;48.116;11.612;2022-08-19T11:21:12;7.43;;;6.30;;
50161;SDS011;36061;48.116;11.612;2022-08-19T11:23:50;7.07;;;5.80;;
50161;SDS011;36061;48.116;11.612;2022-08-19T11:26:19;7.20;;;6.30;;
50161;SDS011;36061;48.116;11.612;2022-08-19T11:28:46;6.03;;;5.20;;
50161;SDS011;36061;48.116;11.612;2022-08-19T11:31:21;6.67;;;5.63;;
50161;SDS011;36061;48.116;11.612;2022-08-19T11:33:48;7.30;;;5.40;;
50161;SDS011;36061;48.116;11.612;2022-08-19T11:36:17;7.40;;;5.57;;
50161;SDS011;36061;48.116;11.612;2022-08-19T11:38:46;6.93;;;5.73;;
50161;SDS011;36061;48.116;11.612;2022-08-19T11:41:13;8.70;;;6.53;;
50161;SDS011;36061;48.116;11.612;2022-08-19T11:43:41;8.30;;;6.47;;
50161;SDS011;36061;48.116;11.612;2022-08-19T11:46:07;10.03;;;7.63;;
50161;SDS011;36061;48.116;11.612;2022-08-19T11:48:35;10.90;;;6.80;;
50161;SDS011;36061;48.116;11.612;2022-08-19T11:51:06;8.20;;;6.10;;
50161;SDS011;36061;48.116;11.612;2022-08-19T11:53:33;9.87;;;7.33;;
50161;SDS011;36061;48.116;11.612;2022-08-19T11:55:59;8.63;;;6.57;;
50161;SDS011;36061;48.116;11.612;2022-08-19T11:58:25;5.73;;;4.50;;
50161;SDS011;36061;48.116;11.612;2022-08-19T12:00:51;6.00;;;5.17;;
50161;SDS011;36061;48.116;11.612;2022-08-19T12:03:18;8.63;;;3.50;;
50161;SDS011;36061;48.116;11.612;2022-08-19T12:05:47;7.73;;;3.50;;
50161;SDS011;36061;48.116;11.612;2022-08-19T12:08:13;4.13;;;3.33;;
50161;SDS011;36061;48.116;11.612;2022-08-19T12:10:40;4.47;;;3.33;;
50161;SDS011;36061;48.116;11.612;2022-08-19T12:13:07;5.43;;;3.37;;
50161;SDS011;36061;48.116;11.612;2022-08-19T12:15:37;6.20;;;3.40;;
50161;SDS011;36061;48.116;11.612;2022-08-19T12:18:06;5.93;;;2.47;;
50161;SDS011;36061;48.116;11.612;2022-08-19T12:20:37;2.53;;;2.03;;
50161;SDS011;36061;48.116;11.612;2022-08-19T12:23:05;1.90;;;1.67;;
50161;SDS011;36061;48.116;11.612;2022-08-19T12:25:32;2.70;;;1.40;;
50161;SDS011;36061;48.116;11.612;2022-08-19T12:27:58;2.27;;;1.60;;
50161;SDS011;36061;48.116;11.612;2022-08-19T12:30:24;2.27;;;1.60;;
50161;SDS011;36061;48.116;11.612;2022-08-19T12:32:50;1.50;;;1.40;;
50161;SDS011;36061;48.116;11.612;2022-08-19T12:35:16;3.67;;;1.60;;
50161;SDS011;36061;48.116;11.612;2022-08-19T12:37:45;1.20;;;1.10;;
50161;SDS011;36061;48.116;11.612;2022-08-19T12:40:12;3.77;;;1.30;;
50161;SDS011;36061;48.116;11.612;2022-08-19T12:42:40;2.07;;;1.40;;
50161;SDS011;36061;48.116;11.612;2022-08-19T12:45:08;1.93;;;1.10;;
50161;SDS011;36061;48.116;11.612;2022-08-19T12:47:38;2.23;;;1.30;;
50161;SDS011;36061;48.116;11.612;2022-08-19T12:50:05;2.10;;;1.13;;
50161;SDS011;36061;48.116;11.612;2022-08-19T12:52:35;1.33;;;1.20;;
50161;SDS011;36061;48.116;11.612;2022-08-19T12:55:06;2.33;;;1.47;;
50161;SDS011;36061;48.116;11.612;2022-08-19T12:57:33;1.33;;;1.23;;
50161;SDS011;36061;48.116;11.612;2022-08-19T13:00:02;1.07;;;0.97;;
50161;SDS011;36061;48.116;11.612;2022-08-19T13:02:38;1.30;;;1.20;;
50161;SDS011;36061;48.116;11.612;2022-08-19T13:05:15;1.30;;;1.10;;
50161;SDS011;36061;48.116;11.612;2022-08-19T13:07:47;1.57;;;1.10;;
50161;SDS011;36061;48.116;11.612;2022-08-19T13:10:14;2.07;;;1.87;;
50161;SDS011;36061;48.116;11.612;2022-08-19T13:12:43;4.50;;;1.67;;
50161;SDS011;36061;48.116;11.612;2022-08-19T13:15:10;3.13;;;1.40;;
50161;SDS011;36061;48.116;11.612;2022-08-19T13:17:37;1.70;;;1.60;;
50161;SDS011;36061;48.116;11.612;2022-08-19T13:20:04;2.60;;;1.43;;
50161;SDS011;36061;48.116;11.612;2022-08-19T13:22:32;4.07;;;1.80;;
50161;SDS011;36061;48.116;11.612;2022-08-19T13:24:58;8.13;;;1.93;;
50161;SDS011;36061;48.116;11.612;2022-08-19T13:27:24;1.70;;;1.40;;
50161;SDS011;36061;48.116;11.612;2022-08-19T13:29:50;1.73;;;1.63;;
50161;SDS011;36061;48.116;11.612;2022-08-19T13:32:34;1.57;;;1.40;;
50161;SDS011;36061;48.116;11.612;2022-08-19T13:35:19;1.73;;;1.13;;
50161;SDS011;36061;48.116;11.612;2022-08-19T13:37:44;1.70;;;1.30;;
50161;SDS011;36061;48.116;11.612;2022-08-19T13:42:40;3.90;;;1.50;;
50161;SDS011;36061;48.116;11.612;2022-08-19T13:45:07;1.57;;;1.37;;
50161;SDS011;36061;48.116;11.612;2022-08-19T13:47:34;3.57;;;1.93;;
50161;SDS011;36061;48.116;11.612;2022-08-19T13:50:03;1.57;;;1.37;;
50161;SDS011;36061;48.116;11.612;2022-08-19T13:52:29;1.77;;;1.30;;
50161;SDS011;36061;48.116;11.612;2022-08-19T13:54:55;3.80;;;1.50;;
50161;SDS011;36061;48.116;11.612;2022-08-19T13:57:21;3.40;;;1.57;;
50161;SDS011;36061;48.116;11.612;2022-08-19T13:59:47;4.43;;;1.50;;
50161;SDS011;36061;48.116;11.612;2022-08-19T14:02:13;1.77;;;1.47;;
50161;SDS011;36061;48.116;11.612;2022-08-19T14:04:39;1.63;;;1.47;;
50161;SDS011;36061;48.116;11.612;2022-08-19T14:07:05;2.90;;;1.70;;
50161;SDS011;36061;48.116;11.612;2022-08-19T14:09:31;2.07;;;1.60;;
50161;SDS011;36061;48.116;11.612;2022-08-19T14:11:57;1.93;;;1.77;;
50161;SDS011;36061;48.116;11.612;2022-08-19T14:14:22;1.60;;;1.50;;
50161;SDS011;36061;48.116;11.612;2022-08-19T14:16:48;1.93;;;1.80;;
50161;SDS011;36061;48.116;11.612;2022-08-19T14:19:14;1.90;;;1.70;;
50161;SDS011;36061;48.116;11.612;2022-08-19T14:21:40;1.87;;;1.77;;
50161;SDS011;36061;48.116;11.612;2022-08-19T14:24:06;2.40;;;1.90;;
50161;SDS011;36061;48.116;11.612;2022-08-19T14:26:33;2.63;;;2.03;;
50161;SDS011;36061;48.116;11.612;2022-08-19T14:28:59;1.63;;;1.53;;
50161;SDS011;36061;48.116;11.612;2022-08-19T14:31:26;2.80;;;1.83;;
50161;SDS011;36061;48.116;11.612;2022-08-19T14:33:52;3.17;;;1.90;;
50161;SDS011;36061;48.116;11.612;2022-08-19T14:36:18;2.30;;;2.10;;
50161;SDS011;36061;48.116;11.612;2022-08-19T14:38:46;3.77;;;2.70;;
50161;SDS011;36061;48.116;11.612;2022-08-19T14:41:17;2.23;;;2.03;;
50161;SDS011;36061;48.116;11.612;2022-08-19T14:43:46;2.50;;;1.97;;
50161;SDS011;36061;48.116;11.612;2022-08-19T14:46:14;2.53;;;2.27;;
50161;SDS011;36061;48.116;11.612;2022-08-19T14:48:41;2.77;;;2.30;;
50161;SDS011;36061;48.116;11.612;2022-08-19T14:51:08;2.23;;;1.90;;
50161;SDS011;36061;48.116;11.612;2022-08-19T14:53:34;2.10;;;1.90;;
50161;SDS011;36061;48.116;11.612;2022-08-19T14:56:00;3.30;;;2.43;;
50161;SDS011;36061;48.116;11.612;2022-08-19T14:58:27;2.83;;;2.03;;